WMT3048 LROP-LGAV
Flight info
| Callsign | WMT3048 |
|---|---|
| Flight time | 1h 15m |
| Altitude | 35000 |
| Route | POLUN DCT TIMUR N181 NIKTI DCT KOROS/N0444F360 UG33 NEVRA |
| Aircraft | A21N/M-SDE2E3FGHIRWXY/LB1 |
Departure
| Time | 2026-05-05 17:55 |
|---|---|
| Airport | Bucharest Henri Coandă International Airport (LROP) |
Arrival
| Time | 2026-05-05 19:10 |
|---|---|
| Airport | Athens Eleftherios Venizelos International Airport (LGAV) |
| Time | Latitude | Longitude | Altitude | Speed | Heading |
|---|---|---|---|---|---|
| 2026-05-05 17:21 | 44.56878 | 26.08191 | 317 ft | 0 kts | 355° |
| 2026-05-05 17:46 | 44.56885 | 26.08190 | 317 ft | 2 kts | 355° |
| 2026-05-05 17:46 | 44.56908 | 26.08190 | 317 ft | 4 kts | 12° |
| 2026-05-05 17:46 | 44.56940 | 26.08233 | 315 ft | 9 kts | 69° |
| 2026-05-05 17:46 | 44.56958 | 26.08351 | 312 ft | 14 kts | 61° |
| 2026-05-05 17:47 | 44.57024 | 26.08370 | 312 ft | 9 kts | 353° |
| 2026-05-05 17:47 | 44.57090 | 26.08374 | 314 ft | 9 kts | 359° |
| 2026-05-05 17:47 | 44.57147 | 26.08367 | 317 ft | 7 kts | 354° |
| 2026-05-05 17:47 | 44.57200 | 26.08369 | 318 ft | 7 kts | 21° |
| 2026-05-05 17:48 | 44.57232 | 26.08444 | 317 ft | 11 kts | 77° |
| 2026-05-05 17:48 | 44.57295 | 26.08494 | 317 ft | 12 kts | 357° |
| 2026-05-05 17:48 | 44.57387 | 26.08481 | 317 ft | 14 kts | 353° |
| 2026-05-05 17:48 | 44.57486 | 26.08514 | 315 ft | 16 kts | 57° |
| 2026-05-05 17:49 | 44.57510 | 26.08680 | 313 ft | 18 kts | 84° |
| 2026-05-05 17:49 | 44.57524 | 26.08870 | 312 ft | 20 kts | 83° |
| 2026-05-05 17:49 | 44.57539 | 26.09069 | 313 ft | 20 kts | 84° |
| 2026-05-05 17:49 | 44.57554 | 26.09267 | 314 ft | 20 kts | 84° |
| 2026-05-05 17:50 | 44.57568 | 26.09458 | 316 ft | 19 kts | 84° |
| 2026-05-05 17:50 | 44.57582 | 26.09652 | 317 ft | 19 kts | 83° |
| 2026-05-05 17:50 | 44.57598 | 26.09836 | 320 ft | 19 kts | 84° |
| 2026-05-05 17:50 | 44.57611 | 26.10028 | 318 ft | 20 kts | 84° |
| 2026-05-05 17:51 | 44.57628 | 26.10230 | 317 ft | 21 kts | 83° |
| 2026-05-05 17:51 | 44.57643 | 26.10443 | 316 ft | 22 kts | 84° |
| 2026-05-05 17:51 | 44.57661 | 26.10671 | 313 ft | 23 kts | 83° |
| 2026-05-05 17:51 | 44.57679 | 26.10905 | 311 ft | 24 kts | 83° |
| 2026-05-05 17:52 | 44.57698 | 26.11153 | 309 ft | 25 kts | 84° |
| 2026-05-05 17:52 | 44.57717 | 26.11404 | 308 ft | 25 kts | 84° |
| 2026-05-05 17:52 | 44.57736 | 26.11652 | 308 ft | 25 kts | 84° |
| 2026-05-05 17:52 | 44.57754 | 26.11896 | 308 ft | 25 kts | 84° |
| 2026-05-05 17:53 | 44.57772 | 26.12138 | 308 ft | 24 kts | 84° |
| 2026-05-05 17:53 | 44.57789 | 26.12379 | 308 ft | 24 kts | 84° |
| 2026-05-05 17:53 | 44.57808 | 26.12624 | 307 ft | 24 kts | 84° |
| 2026-05-05 17:53 | 44.57836 | 26.12833 | 307 ft | 15 kts | 56° |
| 2026-05-05 17:54 | 44.57916 | 26.12821 | 307 ft | 13 kts | 329° |
| 2026-05-05 17:54 | 44.57980 | 26.12732 | 308 ft | 13 kts | 288° |
| 2026-05-05 17:54 | 44.57968 | 26.12451 | 307 ft | 67 kts | 264° |
| 2026-05-05 17:54 | 44.57888 | 26.11384 | 310 ft | 150 kts | 264° |
| 2026-05-05 17:55 | 44.57762 | 26.09709 | 626 ft | 189 kts | 263° |
| 2026-05-05 17:55 | 44.57625 | 26.07880 | 1590 ft | 192 kts | 262° |
| 2026-05-05 17:55 | 44.57490 | 26.06125 | 2741 ft | 183 kts | 263° |
| 2026-05-05 17:55 | 44.57348 | 26.04319 | 3261 ft | 198 kts | 263° |
| 2026-05-05 17:56 | 44.57190 | 26.02329 | 3757 ft | 206 kts | 264° |
| 2026-05-05 17:56 | 44.57037 | 26.00391 | 3803 ft | 209 kts | 264° |
| 2026-05-05 17:56 | 44.56869 | 25.98231 | 4211 ft | 233 kts | 265° |
| 2026-05-05 17:56 | 44.56639 | 25.95906 | 4741 ft | 251 kts | 256° |
| 2026-05-05 17:57 | 44.55879 | 25.93638 | 5342 ft | 267 kts | 239° |
| 2026-05-05 17:57 | 44.54835 | 25.91453 | 6163 ft | 273 kts | 238° |
| 2026-05-05 17:57 | 44.53758 | 25.89250 | 6979 ft | 278 kts | 238° |
| 2026-05-05 17:57 | 44.52685 | 25.86987 | 7747 ft | 284 kts | 239° |
| 2026-05-05 17:58 | 44.51611 | 25.84656 | 8497 ft | 290 kts | 240° |
| 2026-05-05 17:58 | 44.50516 | 25.82238 | 9240 ft | 296 kts | 240° |
| 2026-05-05 17:58 | 44.49411 | 25.79771 | 9963 ft | 302 kts | 240° |
| 2026-05-05 17:58 | 44.48296 | 25.77264 | 10596 ft | 311 kts | 240° |
| 2026-05-05 17:59 | 44.47132 | 25.74639 | 11004 ft | 328 kts | 240° |
| 2026-05-05 17:59 | 44.45892 | 25.71843 | 11424 ft | 344 kts | 240° |
| 2026-05-05 17:59 | 44.44616 | 25.68971 | 12040 ft | 351 kts | 240° |
| 2026-05-05 17:59 | 44.43332 | 25.66086 | 12745 ft | 354 kts | 240° |
| 2026-05-05 18:00 | 44.42023 | 25.63146 | 13437 ft | 358 kts | 240° |
| 2026-05-05 18:00 | 44.40688 | 25.60150 | 14101 ft | 362 kts | 240° |
| 2026-05-05 18:00 | 44.39369 | 25.57190 | 14765 ft | 365 kts | 240° |
| 2026-05-05 18:00 | 44.38022 | 25.54170 | 15433 ft | 368 kts | 240° |
| 2026-05-05 18:01 | 44.36668 | 25.51136 | 16102 ft | 370 kts | 240° |
| 2026-05-05 18:01 | 44.35303 | 25.48080 | 16739 ft | 372 kts | 240° |
| 2026-05-05 18:01 | 44.33928 | 25.45007 | 17362 ft | 375 kts | 240° |
| 2026-05-05 18:01 | 44.32548 | 25.41927 | 17934 ft | 378 kts | 240° |
| 2026-05-05 18:02 | 44.31144 | 25.38794 | 18500 ft | 382 kts | 240° |
| 2026-05-05 18:02 | 44.29735 | 25.35658 | 19048 ft | 385 kts | 240° |
| 2026-05-05 18:02 | 44.28325 | 25.32514 | 19604 ft | 387 kts | 239° |
| 2026-05-05 18:02 | 44.26888 | 25.29309 | 20175 ft | 389 kts | 239° |
| 2026-05-05 18:03 | 44.25461 | 25.26133 | 20715 ft | 391 kts | 239° |
| 2026-05-05 18:03 | 44.23992 | 25.22931 | 21250 ft | 394 kts | 238° |
| 2026-05-05 18:03 | 44.22384 | 25.19831 | 21762 ft | 397 kts | 235° |
| 2026-05-05 18:03 | 44.20708 | 25.16769 | 22256 ft | 399 kts | 234° |
| 2026-05-05 18:04 | 44.18997 | 25.13666 | 22752 ft | 402 kts | 235° |
| 2026-05-05 18:04 | 44.17294 | 25.10583 | 23224 ft | 404 kts | 235° |
| 2026-05-05 18:04 | 44.15598 | 25.07507 | 23697 ft | 406 kts | 235° |
| 2026-05-05 18:04 | 44.13873 | 25.04380 | 24142 ft | 409 kts | 235° |
| 2026-05-05 18:05 | 44.12124 | 25.01211 | 24575 ft | 411 kts | 236° |
| 2026-05-05 18:05 | 44.10377 | 24.98049 | 24988 ft | 414 kts | 236° |
| 2026-05-05 18:05 | 44.08622 | 24.94875 | 25391 ft | 417 kts | 236° |
| 2026-05-05 18:05 | 44.06843 | 24.91661 | 25784 ft | 420 kts | 236° |
| 2026-05-05 18:06 | 44.05060 | 24.88442 | 26153 ft | 423 kts | 236° |
| 2026-05-05 18:06 | 44.03860 | 24.86278 | 26401 ft | 424 kts | 236° |
| 2026-05-05 18:06 | 44.01459 | 24.81950 | 26903 ft | 428 kts | 236° |
| 2026-05-05 18:06 | 43.99636 | 24.78674 | 27249 ft | 430 kts | 236° |
| 2026-05-05 18:07 | 43.97787 | 24.75352 | 27603 ft | 433 kts | 236° |
| 2026-05-05 18:07 | 43.95949 | 24.72054 | 27945 ft | 435 kts | 236° |
| 2026-05-05 18:07 | 43.94106 | 24.68744 | 28297 ft | 438 kts | 236° |
| 2026-05-05 18:07 | 43.92233 | 24.65388 | 28633 ft | 440 kts | 236° |
| 2026-05-05 18:08 | 43.90369 | 24.62056 | 28966 ft | 442 kts | 236° |
| 2026-05-05 18:08 | 43.88468 | 24.58669 | 29287 ft | 445 kts | 236° |
| 2026-05-05 18:08 | 43.86568 | 24.55307 | 29602 ft | 447 kts | 236° |
| 2026-05-05 18:08 | 43.84654 | 24.51918 | 29916 ft | 449 kts | 236° |
| 2026-05-05 18:09 | 43.82737 | 24.48516 | 30224 ft | 451 kts | 236° |
| 2026-05-05 18:09 | 43.80816 | 24.45104 | 30521 ft | 452 kts | 237° |
| 2026-05-05 18:09 | 43.78875 | 24.41654 | 30838 ft | 454 kts | 237° |
| 2026-05-05 18:09 | 43.76928 | 24.38196 | 31140 ft | 455 kts | 237° |
| 2026-05-05 18:10 | 43.74995 | 24.34775 | 31454 ft | 456 kts | 235° |
| 2026-05-05 18:10 | 43.72818 | 24.31505 | 31834 ft | 460 kts | 227° |
| 2026-05-05 18:10 | 43.70341 | 24.28748 | 32266 ft | 462 kts | 218° |
| 2026-05-05 18:10 | 43.67553 | 24.26498 | 32720 ft | 464 kts | 209° |
| 2026-05-05 18:11 | 43.64589 | 24.24867 | 33149 ft | 465 kts | 200° |
| 2026-05-05 18:11 | 43.61420 | 24.23843 | 33508 ft | 468 kts | 191° |
| 2026-05-05 18:11 | 43.58156 | 24.23460 | 33798 ft | 471 kts | 184° |
| 2026-05-05 18:11 | 43.54858 | 24.23352 | 34058 ft | 473 kts | 182° |
| 2026-05-05 18:12 | 43.51572 | 24.23295 | 34308 ft | 475 kts | 182° |
| 2026-05-05 18:12 | 43.48290 | 24.23234 | 34563 ft | 476 kts | 182° |
| 2026-05-05 18:12 | 43.44960 | 24.23157 | 34798 ft | 477 kts | 183° |
| 2026-05-05 18:12 | 43.41635 | 24.23065 | 34961 ft | 480 kts | 183° |
| 2026-05-05 18:13 | 43.38253 | 24.22963 | 34968 ft | 487 kts | 183° |
| 2026-05-05 18:13 | 43.31407 | 24.22748 | 34974 ft | 498 kts | 183° |
| 2026-05-05 18:14 | 43.24435 | 24.22527 | 34979 ft | 502 kts | 183° |
| 2026-05-05 18:14 | 43.21000 | 24.22422 | 34986 ft | 485 kts | 183° |
| 2026-05-05 18:14 | 43.17684 | 24.22320 | 34990 ft | 479 kts | 183° |
| 2026-05-05 18:15 | 43.10977 | 24.22106 | 34996 ft | 479 kts | 183° |
| 2026-05-05 18:15 | 43.04337 | 24.21768 | 35003 ft | 479 kts | 185° |
| 2026-05-05 18:16 | 42.97679 | 24.21304 | 35009 ft | 479 kts | 185° |
| 2026-05-05 18:16 | 42.90991 | 24.20848 | 35027 ft | 479 kts | 185° |
| 2026-05-05 18:17 | 42.84336 | 24.20412 | 35045 ft | 480 kts | 185° |
| 2026-05-05 18:17 | 42.77661 | 24.19980 | 35058 ft | 480 kts | 185° |
| 2026-05-05 18:18 | 42.70984 | 24.19550 | 35066 ft | 480 kts | 185° |
| 2026-05-05 18:18 | 42.64297 | 24.19119 | 35065 ft | 480 kts | 185° |
| 2026-05-05 18:19 | 42.57606 | 24.18688 | 35058 ft | 480 kts | 185° |
| 2026-05-05 18:19 | 42.50954 | 24.18261 | 35047 ft | 480 kts | 185° |
| 2026-05-05 18:20 | 42.44276 | 24.17833 | 35046 ft | 481 kts | 185° |
| 2026-05-05 18:20 | 42.37600 | 24.17404 | 35048 ft | 481 kts | 185° |
| 2026-05-05 18:21 | 42.30887 | 24.16973 | 35041 ft | 481 kts | 185° |
| 2026-05-05 18:21 | 42.24219 | 24.16549 | 35045 ft | 482 kts | 185° |
| 2026-05-05 18:22 | 42.17541 | 24.16125 | 35054 ft | 482 kts | 185° |
| 2026-05-05 18:22 | 42.10814 | 24.15698 | 35064 ft | 482 kts | 185° |
| 2026-05-05 18:23 | 42.04111 | 24.15273 | 35061 ft | 482 kts | 185° |
| 2026-05-05 18:23 | 41.97443 | 24.14851 | 35070 ft | 482 kts | 185° |
| 2026-05-05 18:24 | 41.90718 | 24.14427 | 35073 ft | 482 kts | 185° |
| 2026-05-05 18:24 | 41.84053 | 24.14011 | 35079 ft | 482 kts | 185° |
| 2026-05-05 18:25 | 41.77341 | 24.13593 | 35079 ft | 483 kts | 186° |
| 2026-05-05 18:25 | 41.70618 | 24.13172 | 35078 ft | 483 kts | 185° |
| 2026-05-05 18:26 | 41.63886 | 24.12751 | 35075 ft | 483 kts | 186° |
| 2026-05-05 18:26 | 41.57170 | 24.12702 | 35073 ft | 486 kts | 180° |
| 2026-05-05 18:27 | 41.50411 | 24.13714 | 35065 ft | 489 kts | 172° |
| 2026-05-05 18:27 | 41.43778 | 24.15743 | 35062 ft | 491 kts | 167° |
| 2026-05-05 18:28 | 41.33822 | 24.19068 | 35046 ft | 490 kts | 172° |
| 2026-05-05 18:28 | 41.27105 | 24.20028 | 35053 ft | 488 kts | 178° |
| 2026-05-05 18:29 | 41.20364 | 24.20746 | 35041 ft | 489 kts | 178° |
| 2026-05-05 18:29 | 41.13573 | 24.21520 | 35028 ft | 489 kts | 177° |
| 2026-05-05 18:30 | 41.06738 | 24.22334 | 35012 ft | 490 kts | 177° |
| 2026-05-05 18:30 | 40.99947 | 24.23154 | 35007 ft | 490 kts | 178° |
| 2026-05-05 18:31 | 40.93173 | 24.23973 | 34999 ft | 490 kts | 178° |
| 2026-05-05 18:31 | 40.86347 | 24.24796 | 34999 ft | 491 kts | 178° |
| 2026-05-05 18:32 | 40.79577 | 24.25607 | 34999 ft | 491 kts | 178° |
| 2026-05-05 18:32 | 40.72764 | 24.26425 | 35001 ft | 492 kts | 178° |
| 2026-05-05 18:33 | 40.65971 | 24.27238 | 35004 ft | 492 kts | 178° |
| 2026-05-05 18:33 | 40.59128 | 24.28056 | 34995 ft | 492 kts | 178° |
| 2026-05-05 18:34 | 40.52327 | 24.28871 | 34999 ft | 492 kts | 178° |
| 2026-05-05 18:34 | 40.45529 | 24.29679 | 34999 ft | 493 kts | 178° |
| 2026-05-05 18:35 | 40.38681 | 24.30495 | 34996 ft | 493 kts | 178° |
| 2026-05-05 18:35 | 40.31869 | 24.31302 | 34999 ft | 493 kts | 178° |
| 2026-05-05 18:36 | 40.25037 | 24.32110 | 35000 ft | 494 kts | 178° |
| 2026-05-05 18:36 | 40.18185 | 24.32921 | 35001 ft | 494 kts | 178° |
| 2026-05-05 18:37 | 40.11333 | 24.33730 | 35004 ft | 494 kts | 178° |
| 2026-05-05 18:37 | 40.04520 | 24.34529 | 35003 ft | 494 kts | 178° |
| 2026-05-05 18:38 | 39.97657 | 24.35334 | 35001 ft | 495 kts | 178° |
| 2026-05-05 18:38 | 39.94217 | 24.35738 | 34826 ft | 496 kts | 178° |
| 2026-05-05 18:38 | 39.90803 | 24.36140 | 34600 ft | 494 kts | 179° |
| 2026-05-05 18:39 | 39.87389 | 24.36539 | 34362 ft | 493 kts | 178° |
| 2026-05-05 18:39 | 39.83991 | 24.36937 | 34099 ft | 491 kts | 179° |
| 2026-05-05 18:39 | 39.80606 | 24.37333 | 33835 ft | 489 kts | 179° |
| 2026-05-05 18:39 | 39.77184 | 24.37733 | 33567 ft | 490 kts | 179° |
| 2026-05-05 18:40 | 39.73792 | 24.38125 | 33302 ft | 491 kts | 179° |
| 2026-05-05 18:40 | 39.70403 | 24.38518 | 33037 ft | 492 kts | 179° |
| 2026-05-05 18:40 | 39.67023 | 24.38911 | 32772 ft | 494 kts | 178° |
| 2026-05-05 18:40 | 39.63578 | 24.39311 | 32502 ft | 495 kts | 179° |
| 2026-05-05 18:41 | 39.60154 | 24.39710 | 32238 ft | 495 kts | 179° |
| 2026-05-05 18:41 | 39.56711 | 24.40108 | 31969 ft | 496 kts | 179° |
| 2026-05-05 18:41 | 39.53296 | 24.40505 | 31704 ft | 496 kts | 179° |
| 2026-05-05 18:41 | 39.49884 | 24.40898 | 31434 ft | 498 kts | 178° |
| 2026-05-05 18:42 | 39.46395 | 24.41303 | 31166 ft | 497 kts | 178° |
| 2026-05-05 18:42 | 39.42956 | 24.41700 | 30894 ft | 496 kts | 178° |
| 2026-05-05 18:42 | 39.39532 | 24.42096 | 30633 ft | 494 kts | 179° |
| 2026-05-05 18:42 | 39.36129 | 24.42492 | 30361 ft | 492 kts | 179° |
| 2026-05-05 18:43 | 39.32751 | 24.42881 | 30090 ft | 491 kts | 179° |
| 2026-05-05 18:43 | 39.29361 | 24.43268 | 29826 ft | 489 kts | 179° |
| 2026-05-05 18:43 | 39.25954 | 24.43661 | 29557 ft | 486 kts | 179° |
| 2026-05-05 18:43 | 39.22624 | 24.44043 | 29291 ft | 484 kts | 179° |
| 2026-05-05 18:44 | 39.19267 | 24.44428 | 29028 ft | 481 kts | 178° |
| 2026-05-05 18:44 | 39.15914 | 24.44814 | 28757 ft | 480 kts | 179° |
| 2026-05-05 18:44 | 39.12632 | 24.45191 | 28495 ft | 478 kts | 178° |
| 2026-05-05 18:44 | 39.09322 | 24.45565 | 28227 ft | 476 kts | 178° |
| 2026-05-05 18:45 | 39.06053 | 24.45940 | 27970 ft | 474 kts | 178° |
| 2026-05-05 18:45 | 39.02777 | 24.46316 | 27708 ft | 471 kts | 178° |
| 2026-05-05 18:45 | 38.99489 | 24.46689 | 27446 ft | 469 kts | 178° |
| 2026-05-05 18:45 | 38.96275 | 24.47056 | 27190 ft | 467 kts | 178° |
| 2026-05-05 18:46 | 38.93012 | 24.47428 | 26930 ft | 465 kts | 178° |
| 2026-05-05 18:46 | 38.89798 | 24.47794 | 26670 ft | 463 kts | 178° |
| 2026-05-05 18:46 | 38.86598 | 24.48159 | 26405 ft | 460 kts | 178° |
| 2026-05-05 18:46 | 38.83436 | 24.48521 | 26149 ft | 458 kts | 178° |
| 2026-05-05 18:47 | 38.80241 | 24.48881 | 25889 ft | 456 kts | 178° |
| 2026-05-05 18:47 | 38.77079 | 24.49238 | 25630 ft | 455 kts | 178° |
| 2026-05-05 18:47 | 38.73938 | 24.49595 | 25373 ft | 453 kts | 178° |
| 2026-05-05 18:47 | 38.70779 | 24.49953 | 25113 ft | 450 kts | 178° |
| 2026-05-05 18:48 | 38.67684 | 24.50304 | 24852 ft | 447 kts | 178° |
| 2026-05-05 18:48 | 38.64555 | 24.50656 | 24588 ft | 446 kts | 178° |
| 2026-05-05 18:48 | 38.61510 | 24.51001 | 24328 ft | 443 kts | 178° |
| 2026-05-05 18:48 | 38.58447 | 24.51348 | 24070 ft | 441 kts | 178° |
| 2026-05-05 18:49 | 38.55397 | 24.51691 | 23815 ft | 439 kts | 178° |
| 2026-05-05 18:49 | 38.52354 | 24.52032 | 23554 ft | 437 kts | 178° |
| 2026-05-05 18:49 | 38.49298 | 24.52377 | 23289 ft | 435 kts | 177° |
| 2026-05-05 18:49 | 38.46288 | 24.52718 | 23036 ft | 432 kts | 178° |
| 2026-05-05 18:50 | 38.43303 | 24.53053 | 22780 ft | 430 kts | 177° |
| 2026-05-05 18:50 | 38.40331 | 24.53387 | 22526 ft | 428 kts | 177° |
| 2026-05-05 18:50 | 38.37374 | 24.53719 | 22274 ft | 426 kts | 178° |
| 2026-05-05 18:50 | 38.34430 | 24.54050 | 22028 ft | 424 kts | 177° |
| 2026-05-05 18:51 | 38.31492 | 24.54380 | 21768 ft | 421 kts | 177° |
| 2026-05-05 18:51 | 38.28581 | 24.54708 | 21513 ft | 420 kts | 177° |
| 2026-05-05 18:51 | 38.25681 | 24.55034 | 21260 ft | 419 kts | 177° |
| 2026-05-05 18:51 | 38.22767 | 24.55359 | 20965 ft | 416 kts | 177° |
| 2026-05-05 18:52 | 38.19909 | 24.55675 | 20558 ft | 413 kts | 178° |
| 2026-05-05 18:52 | 38.17033 | 24.55656 | 20109 ft | 406 kts | 188° |
| 2026-05-05 18:52 | 38.14316 | 24.55008 | 19672 ft | 398 kts | 199° |
| 2026-05-05 18:52 | 38.11672 | 24.53928 | 19216 ft | 394 kts | 202° |
| 2026-05-05 18:53 | 38.09106 | 24.52786 | 18746 ft | 392 kts | 203° |
| 2026-05-05 18:53 | 38.06528 | 24.51631 | 18286 ft | 390 kts | 202° |
| 2026-05-05 18:53 | 38.03978 | 24.50501 | 17842 ft | 387 kts | 202° |
| 2026-05-05 18:53 | 38.01426 | 24.49387 | 17387 ft | 385 kts | 202° |
| 2026-05-05 18:54 | 37.98929 | 24.48304 | 16950 ft | 383 kts | 202° |
| 2026-05-05 18:54 | 37.96397 | 24.47213 | 16506 ft | 380 kts | 201° |
| 2026-05-05 18:54 | 37.93893 | 24.46135 | 16049 ft | 379 kts | 201° |
| 2026-05-05 18:54 | 37.91432 | 24.45079 | 15609 ft | 377 kts | 201° |
| 2026-05-05 18:55 | 37.88953 | 24.44017 | 15123 ft | 376 kts | 201° |
| 2026-05-05 18:55 | 37.86456 | 24.42953 | 14650 ft | 374 kts | 201° |
| 2026-05-05 18:55 | 37.84016 | 24.41916 | 14188 ft | 372 kts | 200° |
| 2026-05-05 18:55 | 37.81551 | 24.40866 | 13727 ft | 370 kts | 200° |
| 2026-05-05 18:56 | 37.79126 | 24.39831 | 13253 ft | 369 kts | 200° |
| 2026-05-05 18:56 | 37.76688 | 24.38792 | 12785 ft | 367 kts | 200° |
| 2026-05-05 18:56 | 37.74288 | 24.37770 | 12340 ft | 365 kts | 200° |
| 2026-05-05 18:56 | 37.71873 | 24.36741 | 11899 ft | 362 kts | 200° |
| 2026-05-05 18:57 | 37.69505 | 24.35734 | 11472 ft | 359 kts | 200° |
| 2026-05-05 18:57 | 37.67118 | 24.34718 | 11037 ft | 356 kts | 200° |
| 2026-05-05 18:57 | 37.64780 | 24.33723 | 10613 ft | 354 kts | 199° |
| 2026-05-05 18:57 | 37.62454 | 24.32734 | 10260 ft | 348 kts | 199° |
| 2026-05-05 18:58 | 37.60235 | 24.31767 | 10157 ft | 333 kts | 203° |
| 2026-05-05 18:58 | 37.58381 | 24.30192 | 10020 ft | 313 kts | 233° |
| 2026-05-05 18:58 | 37.57437 | 24.27840 | 9741 ft | 294 kts | 264° |
| 2026-05-05 18:58 | 37.57553 | 24.25398 | 9363 ft | 279 kts | 292° |
| 2026-05-05 18:59 | 37.58424 | 24.23240 | 9016 ft | 270 kts | 306° |
| 2026-05-05 18:59 | 37.59401 | 24.21244 | 8687 ft | 268 kts | 305° |
| 2026-05-05 18:59 | 37.60364 | 24.19237 | 8358 ft | 265 kts | 304° |
| 2026-05-05 18:59 | 37.61286 | 24.17259 | 8030 ft | 263 kts | 304° |
| 2026-05-05 19:00 | 37.62205 | 24.15256 | 7694 ft | 261 kts | 303° |
| 2026-05-05 19:00 | 37.63111 | 24.13249 | 7368 ft | 259 kts | 303° |
| 2026-05-05 19:00 | 37.63995 | 24.11280 | 7047 ft | 257 kts | 303° |
| 2026-05-05 19:00 | 37.64864 | 24.09334 | 6728 ft | 255 kts | 302° |
| 2026-05-05 19:01 | 37.65737 | 24.07370 | 6413 ft | 253 kts | 302° |
| 2026-05-05 19:01 | 37.66602 | 24.05425 | 6095 ft | 251 kts | 302° |
| 2026-05-05 19:01 | 37.67450 | 24.03519 | 5778 ft | 251 kts | 302° |
| 2026-05-05 19:01 | 37.68301 | 24.01597 | 5467 ft | 249 kts | 301° |
| 2026-05-05 19:02 | 37.69151 | 23.99678 | 5155 ft | 248 kts | 301° |
| 2026-05-05 19:02 | 37.69988 | 23.97786 | 4850 ft | 249 kts | 301° |
| 2026-05-05 19:02 | 37.70842 | 23.95854 | 4540 ft | 248 kts | 301° |
| 2026-05-05 19:02 | 37.71685 | 23.93941 | 4238 ft | 247 kts | 300° |
| 2026-05-05 19:03 | 37.72530 | 23.92029 | 3974 ft | 244 kts | 300° |
| 2026-05-05 19:03 | 37.73332 | 23.90204 | 3932 ft | 228 kts | 300° |
| 2026-05-05 19:03 | 37.74081 | 23.88501 | 3889 ft | 214 kts | 300° |
| 2026-05-05 19:03 | 37.74768 | 23.86936 | 3920 ft | 193 kts | 301° |
| 2026-05-05 19:04 | 37.75399 | 23.85504 | 3791 ft | 180 kts | 301° |
| 2026-05-05 19:04 | 37.75987 | 23.84167 | 3682 ft | 164 kts | 301° |
| 2026-05-05 19:04 | 37.76522 | 23.82953 | 3542 ft | 149 kts | 301° |
| 2026-05-05 19:04 | 37.77014 | 23.81836 | 3445 ft | 145 kts | 301° |
| 2026-05-05 19:05 | 37.77507 | 23.80717 | 3339 ft | 144 kts | 301° |
| 2026-05-05 19:05 | 37.78054 | 23.79654 | 3105 ft | 145 kts | 319° |
| 2026-05-05 19:05 | 37.78970 | 23.79397 | 2779 ft | 139 kts | 20° |
| 2026-05-05 19:05 | 37.79777 | 23.80099 | 2761 ft | 142 kts | 39° |
| 2026-05-05 19:06 | 37.80551 | 23.80884 | 2720 ft | 143 kts | 37° |
| 2026-05-05 19:06 | 37.81354 | 23.81644 | 2721 ft | 143 kts | 36° |
| 2026-05-05 19:06 | 37.82152 | 23.82389 | 2697 ft | 143 kts | 36° |
| 2026-05-05 19:06 | 37.82953 | 23.83145 | 2566 ft | 145 kts | 37° |
| 2026-05-05 19:07 | 37.83738 | 23.83896 | 2493 ft | 133 kts | 37° |
| 2026-05-05 19:07 | 37.84477 | 23.84614 | 2229 ft | 137 kts | 37° |
| 2026-05-05 19:07 | 37.85253 | 23.85347 | 2095 ft | 139 kts | 36° |
| 2026-05-05 19:07 | 37.86041 | 23.86071 | 1963 ft | 138 kts | 37° |
| 2026-05-05 19:08 | 37.86802 | 23.86782 | 1717 ft | 135 kts | 38° |
| 2026-05-05 19:08 | 37.87545 | 23.87499 | 1502 ft | 135 kts | 39° |
| 2026-05-05 19:08 | 37.88291 | 23.88222 | 1328 ft | 133 kts | 37° |
| 2026-05-05 19:08 | 37.89028 | 23.88931 | 1170 ft | 131 kts | 37° |
| 2026-05-05 19:09 | 37.89772 | 23.89641 | 981 ft | 135 kts | 37° |
| 2026-05-05 19:09 | 37.90532 | 23.90364 | 764 ft | 136 kts | 36° |
| 2026-05-05 19:09 | 37.91286 | 23.91059 | 550 ft | 133 kts | 37° |
| 2026-05-05 19:09 | 37.92016 | 23.91767 | 360 ft | 130 kts | 36° |
| 2026-05-05 19:10 | 37.92724 | 23.92450 | 261 ft | 119 kts | 38° |
| 2026-05-05 19:10 | 37.93329 | 23.93013 | 259 ft | 91 kts | 37° |
| 2026-05-05 19:10 | 37.93742 | 23.93403 | 265 ft | 51 kts | 37° |
| 2026-05-05 19:10 | 37.93872 | 23.93561 | 267 ft | 17 kts | 53° |
| 2026-05-05 19:11 | 37.93930 | 23.93695 | 269 ft | 16 kts | 69° |
| 2026-05-05 19:11 | 37.93960 | 23.93816 | 271 ft | 7 kts | 128° |
| 2026-05-05 19:11 | 37.93901 | 23.93825 | 272 ft | 9 kts | 201° |
| 2026-05-05 19:11 | 37.93835 | 23.93768 | 271 ft | 13 kts | 216° |
| 2026-05-05 19:12 | 37.93752 | 23.93684 | 267 ft | 17 kts | 218° |
| 2026-05-05 19:12 | 37.93652 | 23.93686 | 265 ft | 16 kts | 103° |
| 2026-05-05 19:12 | 37.93711 | 23.93798 | 269 ft | 14 kts | 30° |
| 2026-05-05 19:12 | 37.93792 | 23.93869 | 272 ft | 13 kts | 40° |
| 2026-05-05 19:13 | 37.93870 | 23.93947 | 272 ft | 14 kts | 37° |
| 2026-05-05 19:13 | 37.93956 | 23.94029 | 272 ft | 15 kts | 37° |
| 2026-05-05 19:13 | 37.94044 | 23.94113 | 274 ft | 15 kts | 37° |
| 2026-05-05 19:13 | 37.94133 | 23.94196 | 276 ft | 15 kts | 36° |
| 2026-05-05 19:14 | 37.94221 | 23.94278 | 277 ft | 15 kts | 36° |
| 2026-05-05 19:14 | 37.94308 | 23.94362 | 279 ft | 15 kts | 37° |
| 2026-05-05 19:14 | 37.94395 | 23.94445 | 280 ft | 15 kts | 38° |
| 2026-05-05 19:14 | 37.94475 | 23.94522 | 285 ft | 13 kts | 37° |
| 2026-05-05 19:15 | 37.94550 | 23.94594 | 287 ft | 13 kts | 38° |
| 2026-05-05 19:15 | 37.94620 | 23.94674 | 288 ft | 13 kts | 66° |
| 2026-05-05 19:15 | 37.94591 | 23.94779 | 291 ft | 13 kts | 126° |
| 2026-05-05 19:15 | 37.94537 | 23.94871 | 293 ft | 13 kts | 128° |
| 2026-05-05 19:16 | 37.94477 | 23.94969 | 293 ft | 14 kts | 128° |
| 2026-05-05 19:16 | 37.94412 | 23.95074 | 294 ft | 15 kts | 124° |
| 2026-05-05 19:16 | 37.94349 | 23.95190 | 294 ft | 16 kts | 128° |
| 2026-05-05 19:16 | 37.94288 | 23.95289 | 292 ft | 8 kts | 127° |
| 2026-05-05 19:17 | 37.94252 | 23.95342 | 291 ft | 7 kts | 142° |
| 2026-05-05 19:17 | 37.94211 | 23.95342 | 291 ft | 4 kts | 206° |
| 2026-05-05 19:17 | 37.94184 | 23.95322 | 291 ft | 5 kts | 215° |
| 2026-05-05 19:17 | 37.94176 | 23.95315 | 291 ft | 0 kts | 216° |
| 2026-05-05 19:18 | 37.94174 | 23.95313 | 292 ft | 1 kts | 216° |
| 2026-05-05 19:18 | 37.94172 | 23.95311 | 292 ft | 0 kts | 216° |